Time;durP1;ratioP1;P1;durP2;ratioP2;P2;SDS_P1;SDS_P2;PMS_P1;PMS_P2;Temp;Humidity;BMP_temperature;BMP_pressure;BME280_temperature;BME280_humidity;BME280_pressure;Samples;Min_cycle;Max_cycle;Signal;HPM_P1;HPM_P2
2023/04/30 00:01:41;;;;;;;21.95;14.00;;;10.40;99.90;;;;;;5071839;28;20025;-79
2023/04/30 00:04:07;;;;;;;21.42;13.55;;;10.40;99.90;;;;;;5073061;28;20097;-78
2023/04/30 00:06:32;;;;;;;20.70;14.57;;;10.40;99.90;;;;;;5071818;28;20099;-78
2023/04/30 00:08:58;;;;;;;21.20;13.95;;;10.40;99.90;;;;;;5073026;28;20017;-78
2023/04/30 00:11:24;;;;;;;24.67;17.17;;;10.40;99.90;;;;;;5071719;28;20032;-78
2023/04/30 00:13:50;;;;;;;23.35;15.95;;;10.40;99.90;;;;;;5071747;28;20017;-78
2023/04/30 00:16:16;;;;;;;27.80;17.35;;;10.40;99.90;;;;;;5072955;28;20101;-78
2023/04/30 00:18:42;;;;;;;23.98;15.27;;;10.40;99.90;;;;;;5072880;28;20044;-78
2023/04/30 00:21:08;;;;;;;22.60;14.90;;;10.30;99.90;;;;;;5072917;28;20025;-78
2023/04/30 00:23:34;;;;;;;25.27;15.07;;;10.40;99.90;;;;;;5071689;28;20107;-78
2023/04/30 00:25:59;;;;;;;22.30;14.70;;;10.40;99.90;;;;;;5072850;28;20074;-78
2023/04/30 00:28:25;;;;;;;21.60;14.73;;;10.40;99.90;;;;;;5071661;28;20462;-78
2023/04/30 00:30:51;;;;;;;23.92;15.57;;;10.40;99.90;;;;;;5071524;28;20027;-78
2023/04/30 00:33:16;;;;;;;21.80;14.65;;;10.40;99.90;;;;;;5072595;28;20059;-79
2023/04/30 00:35:42;;;;;;;22.77;13.95;;;10.40;99.90;;;;;;5072748;28;20024;-78
2023/04/30 00:38:08;;;;;;;19.42;13.57;;;10.30;99.90;;;;;;5071509;28;20021;-78
2023/04/30 00:40:34;;;;;;;18.83;13.35;;;10.40;99.90;;;;;;5071461;28;20112;-78
2023/04/30 00:43:00;;;;;;;19.20;13.38;;;10.30;99.90;;;;;;5071429;28;20108;-78
2023/04/30 00:45:26;;;;;;;19.58;13.80;;;10.30;99.90;;;;;;5071342;28;20533;-78
2023/04/30 00:47:51;;;;;;;18.20;12.10;;;10.30;99.90;;;;;;5072617;28;20025;-78
2023/04/30 00:50:17;;;;;;;18.02;12.75;;;10.30;99.90;;;;;;5071682;28;20024;-78
2023/04/30 00:52:43;;;;;;;18.30;12.43;;;10.30;99.90;;;;;;5076259;28;20021;-78
2023/04/30 00:55:13;;;;;;;18.45;12.73;;;10.30;99.90;;;;;;5076342;28;20035;-79
2023/04/30 00:57:42;;;;;;;15.25;10.55;;;10.30;99.90;;;;;;5074799;28;20028;-79
2023/04/30 01:00:10;;;;;;;17.10;11.65;;;10.30;99.90;;;;;;5076262;28;20025;-79
2023/04/30 01:02:37;;;;;;;16.42;10.88;;;10.30;99.90;;;;;;5058844;28;20024;-79
2023/04/30 01:05:03;;;;;;;16.77;10.25;;;10.20;99.90;;;;;;5054679;28;20498;-78
2023/04/30 01:07:30;;;;;;;15.20;11.48;;;10.20;99.90;;;;;;5055989;28;20363;-78
2023/04/30 01:09:56;;;;;;;13.73;9.07;;;10.20;99.90;;;;;;5054768;28;20114;-78
2023/04/30 01:12:36;;;;;;;11.75;8.63;;;10.10;99.90;;;;;;5054572;28;20056;-78
2023/04/30 01:15:29;;;;;;;12.88;9.32;;;10.10;99.90;;;;;;5056090;28;20052;-78
2023/04/30 01:18:03;;;;;;;;;;;10.00;99.90;;;;;;5055006;28;20029;-78
2023/04/30 01:20:31;;;;;;;13.63;9.68;;;10.00;99.90;;;;;;5055836;28;20392;-79
2023/04/30 01:23:11;;;;;;;18.40;10.88;;;10.00;99.90;;;;;;5054369;28;20028;-78
2023/04/30 01:26:00;;;;;;;20.98;11.77;;;10.00;99.90;;;;;;5054339;28;20091;-79
2023/04/30 01:28:27;;;;;;;17.67;11.80;;;10.00;99.90;;;;;;5055821;28;20025;-78
2023/04/30 01:30:53;;;;;;;22.00;12.75;;;10.00;99.90;;;;;;5054235;28;20021;-78
2023/04/30 01:33:18;;;;;;;21.77;12.80;;;9.90;99.90;;;;;;5054346;28;20048;-79
2023/04/30 01:36:06;;;;;;;21.48;12.10;;;9.90;99.90;;;;;;5054370;28;20390;-78
2023/04/30 01:38:48;;;;;;;17.98;10.43;;;9.80;99.90;;;;;;5056938;28;20036;-78
2023/04/30 01:41:35;;;;;;;15.65;9.80;;;9.80;99.90;;;;;;5075503;28;20378;-78
2023/04/30 01:44:19;;;;;;;17.92;11.15;;;9.80;99.90;;;;;;5074112;28;20033;-79
2023/04/30 01:47:03;;;;;;;14.52;9.35;;;9.80;99.90;;;;;;5075221;28;20033;-79
2023/04/30 01:49:50;;;;;;;13.80;8.80;;;9.70;99.90;;;;;;5074173;28;20021;-78
2023/04/30 01:52:38;;;;;;;13.55;8.80;;;9.70;99.90;;;;;;5073958;28;20025;-79
2023/04/30 01:55:12;;;;;;;16.40;10.88;;;9.70;99.90;;;;;;5074088;28;20028;-78
2023/04/30 01:57:44;;;;;;;17.67;11.15;;;9.70;99.90;;;;;;5075213;28;20059;-79
2023/04/30 02:00:10;;;;;;;20.27;12.63;;;9.70;99.90;;;;;;5073913;28;20020;-78
2023/04/30 02:02:36;;;;;;;26.92;15.30;;;9.70;99.90;;;;;;5073109;28;20017;-78
2023/04/30 02:05:02;;;;;;;21.52;12.63;;;9.60;99.90;;;;;;5073693;28;20527;-78
2023/04/30 02:07:40;;;;;;;21.67;13.75;;;9.60;99.90;;;;;;5074948;28;20085;-79
2023/04/30 02:10:07;;;;;;;21.58;12.25;;;9.60;99.90;;;;;;5073764;28;20074;-78
2023/04/30 02:12:33;;;;;;;22.63;12.88;;;9.50;99.90;;;;;;5073604;28;20025;-78
2023/04/30 02:14:59;;;;;;;21.52;12.35;;;9.50;99.90;;;;;;5073493;28;20025;-78
2023/04/30 02:17:25;;;;;;;23.88;13.48;;;9.40;99.90;;;;;;5073468;28;20028;-78
2023/04/30 02:19:50;;;;;;;22.90;14.00;;;9.40;99.90;;;;;;5074705;28;20391;-78
2023/04/30 02:22:16;;;;;;;23.23;13.05;;;9.40;99.90;;;;;;5074589;28;20031;-78
2023/04/30 02:24:42;;;;;;;22.83;13.02;;;9.40;99.90;;;;;;5074639;28;20040;-77
2023/04/30 02:27:07;;;;;;;21.50;13.35;;;9.30;99.90;;;;;;5073186;28;20048;-79
2023/04/30 02:29:33;;;;;;;22.67;11.93;;;9.30;99.90;;;;;;5074498;28;20064;-78
2023/04/30 02:31:58;;;;;;;20.33;13.27;;;9.30;99.90;;;;;;5073152;28;20075;-78
2023/04/30 02:34:24;;;;;;;22.20;13.35;;;9.30;99.90;;;;;;5073067;28;20076;-78
2023/04/30 02:36:50;;;;;;;19.55;13.13;;;9.30;99.90;;;;;;5074202;28;20023;-78
2023/04/30 02:39:16;;;;;;;20.30;13.40;;;9.30;99.90;;;;;;5073108;28;20454;-78
2023/04/30 02:41:41;;;;;;;22.48;12.80;;;9.30;99.90;;;;;;5074245;28;20025;-78
2023/04/30 02:44:07;;;;;;;20.35;12.90;;;9.30;99.90;;;;;;5072929;28;20477;-78
2023/04/30 02:46:32;;;;;;;19.48;12.60;;;9.20;99.90;;;;;;5072875;28;20029;-78
2023/04/30 02:48:58;;;;;;;20.27;13.07;;;9.20;99.90;;;;;;5072852;28;20027;-78
2023/04/30 02:51:24;;;;;;;16.23;12.60;;;9.30;99.90;;;;;;5074247;28;20029;-78
2023/04/30 02:53:50;;;;;;;18.40;11.68;;;9.20;99.90;;;;;;5072685;28;20115;-78
2023/04/30 02:56:16;;;;;;;16.92;11.75;;;9.20;99.90;;;;;;5072665;28;20420;-78
2023/04/30 02:58:41;;;;;;;18.48;11.68;;;9.20;99.90;;;;;;5073863;28;20095;-78
2023/04/30 03:01:07;;;;;;;17.27;10.40;;;9.10;99.90;;;;;;5074201;28;20024;-78
2023/04/30 03:03:33;;;;;;;19.92;11.73;;;9.10;99.90;;;;;;5073796;28;20100;-78
2023/04/30 03:05:58;;;;;;;22.15;13.52;;;9.10;99.90;;;;;;5072463;28;20044;-78
2023/04/30 03:08:25;;;;;;;24.83;14.48;;;9.10;99.90;;;;;;5073672;28;20107;-78
2023/04/30 03:10:51;;;;;;;24.65;16.05;;;9.00;99.90;;;;;;5073755;28;20028;-78
2023/04/30 03:13:16;;;;;;;18.77;13.15;;;8.90;99.90;;;;;;5073695;28;20027;-78
2023/04/30 03:15:42;;;;;;;21.70;14.55;;;8.80;99.90;;;;;;5071418;28;20020;-78
2023/04/30 03:18:09;;;;;;;23.60;15.65;;;8.80;99.90;;;;;;5072336;28;20020;-79
2023/04/30 03:20:35;;;;;;;23.58;15.15;;;8.70;99.90;;;;;;5072368;28;20020;-78
2023/04/30 03:23:01;;;;;;;20.73;15.18;;;8.70;99.90;;;;;;5073526;28;20028;-78
2023/04/30 03:25:26;;;;;;;20.52;15.50;;;8.60;99.90;;;;;;5073427;28;20501;-78
2023/04/30 03:27:52;;;;;;;23.38;16.75;;;8.50;99.90;;;;;;5072209;28;20059;-78
2023/04/30 03:30:17;;;;;;;25.73;16.13;;;8.40;99.90;;;;;;5073493;28;20470;-79
2023/04/30 03:32:43;;;;;;;22.65;15.10;;;8.40;99.90;;;;;;5071807;28;20165;-78
2023/04/30 03:35:09;;;;;;;20.23;15.73;;;8.30;99.90;;;;;;5072188;28;20031;-79
2023/04/30 03:37:34;;;;;;;24.63;16.30;;;8.20;99.90;;;;;;5073458;28;20028;-77
2023/04/30 03:40:00;;;;;;;19.65;14.73;;;8.10;99.90;;;;;;5073340;28;20377;-78
2023/04/30 03:42:25;;;;;;;21.50;14.45;;;8.20;99.90;;;;;;5072070;28;20374;-78
2023/04/30 03:44:51;;;;;;;22.83;15.95;;;8.00;99.90;;;;;;5073166;28;20036;-78
2023/04/30 03:47:17;;;;;;;20.42;15.95;;;8.00;99.90;;;;;;5073241;28;20025;-78
2023/04/30 03:49:42;;;;;;;21.88;15.70;;;8.00;99.90;;;;;;5071984;28;20043;-78
2023/04/30 03:52:08;;;;;;;19.73;14.15;;;8.00;99.90;;;;;;5071928;28;20020;-78
2023/04/30 03:54:33;;;;;;;19.90;15.65;;;7.90;99.90;;;;;;5073177;28;20101;-79
2023/04/30 03:57:02;;;;;;;18.80;13.25;;;8.00;99.90;;;;;;5073052;28;20529;-78
2023/04/30 03:59:28;;;;;;;17.90;13.80;;;7.90;99.90;;;;;;5073149;28;20125;-77
2023/04/30 04:01:54;;;;;;;14.07;12.15;;;8.00;99.90;;;;;;5073156;28;20068;-78
2023/04/30 04:04:20;;;;;;;13.73;11.00;;;7.90;99.90;;;;;;5073043;28;20390;-79
2023/04/30 04:06:46;;;;;;;17.48;11.07;;;7.90;99.90;;;;;;5071868;28;20032;-78
2023/04/30 04:09:12;;;;;;;11.98;9.55;;;8.00;99.90;;;;;;5072920;28;20474;-78
2023/04/30 04:11:37;;;;;;;14.38;10.48;;;7.90;99.90;;;;;;5073125;28;20025;-79
2023/04/30 04:14:03;;;;;;;19.23;12.35;;;7.80;99.90;;;;;;5071679;28;20031;-78
2023/04/30 04:16:28;;;;;;;20.02;13.57;;;7.80;99.90;;;;;;5072996;28;20033;-78
2023/04/30 04:18:54;;;;;;;20.40;13.65;;;7.70;99.90;;;;;;5071658;28;20024;-78
2023/04/30 04:21:20;;;;;;;24.98;16.63;;;7.70;99.90;;;;;;5071760;28;20017;-77
2023/04/30 04:23:45;;;;;;;24.80;15.60;;;7.60;99.90;;;;;;5072981;28;20043;-77
2023/04/30 04:26:11;;;;;;;24.15;16.33;;;7.60;99.90;;;;;;5074633;28;20036;-77
2023/04/30 04:28:37;;;;;;;24.95;17.60;;;7.60;99.90;;;;;;5076817;28;20043;-78
2023/04/30 04:31:03;;;;;;;23.98;16.45;;;7.50;99.90;;;;;;5076756;28;20426;-77
2023/04/30 04:33:29;;;;;;;28.75;16.98;;;7.50;99.90;;;;;;5074541;28;20075;-78
2023/04/30 04:35:56;;;;;;;25.95;17.02;;;7.50;99.90;;;;;;5075374;28;20048;-78
2023/04/30 04:38:22;;;;;;;25.70;17.05;;;7.30;99.90;;;;;;5075395;28;20111;-78
2023/04/30 04:40:52;;;;;;;28.08;17.15;;;7.30;99.90;;;;;;5076640;28;20099;-78
2023/04/30 04:43:18;;;;;;;27.70;16.95;;;7.30;99.90;;;;;;5076592;28;20421;-78
2023/04/30 04:45:44;;;;;;;26.88;17.40;;;7.30;99.90;;;;;;5074806;28;20382;-78
2023/04/30 04:48:10;;;;;;;22.65;16.23;;;7.30;99.90;;;;;;5076055;28;20027;-78
2023/04/30 04:50:36;;;;;;;26.40;16.13;;;7.20;99.90;;;;;;5076409;28;20056;-78
2023/04/30 04:53:01;;;;;;;26.45;16.17;;;7.20;99.90;;;;;;5075107;28;20029;-78
2023/04/30 04:55:27;;;;;;;25.10;16.55;;;7.30;99.90;;;;;;5076528;28;20060;-78
2023/04/30 04:57:53;;;;;;;28.55;17.85;;;7.30;99.90;;;;;;5074903;28;20055;-78
2023/04/30 05:00:20;;;;;;;31.90;18.85;;;7.30;99.90;;;;;;5076263;28;20164;-77
2023/04/30 05:02:46;;;;;;;30.67;18.15;;;7.30;99.90;;;;;;5076122;28;20025;-78
2023/04/30 05:05:12;;;;;;;31.90;19.73;;;7.40;99.90;;;;;;5075506;28;20037;-78
2023/04/30 05:07:37;;;;;;;33.00;20.30;;;7.40;99.90;;;;;;5075492;28;20015;-78
2023/04/30 05:10:03;;;;;;;34.70;21.23;;;7.50;99.90;;;;;;5074346;28;20113;-78
2023/04/30 05:12:29;;;;;;;27.98;17.55;;;7.40;99.90;;;;;;5074225;28;20409;-78
2023/04/30 05:14:54;;;;;;;32.65;18.58;;;7.40;99.90;;;;;;5074285;28;20025;-79
2023/04/30 05:17:20;;;;;;;30.75;19.00;;;7.40;99.90;;;;;;5075409;28;20036;-78
2023/04/30 05:19:47;;;;;;;29.90;18.90;;;7.40;99.90;;;;;;5074464;28;20024;-78
2023/04/30 05:22:13;;;;;;;28.67;19.00;;;7.40;99.90;;;;;;5074390;28;20023;-78
2023/04/30 05:24:39;;;;;;;32.22;19.55;;;7.50;99.90;;;;;;5075676;28;20482;-78
2023/04/30 05:27:05;;;;;;;28.70;18.50;;;7.50;99.90;;;;;;5074371;28;20016;-78
2023/04/30 05:29:30;;;;;;;27.52;17.52;;;7.60;99.90;;;;;;5075647;28;20047;-78
2023/04/30 05:31:56;;;;;;;26.13;17.45;;;7.60;99.90;;;;;;5074178;28;20020;-77
2023/04/30 05:34:21;;;;;;;24.85;16.35;;;7.60;99.90;;;;;;5074102;28;20058;-78
2023/04/30 05:36:47;;;;;;;25.35;16.42;;;7.60;99.90;;;;;;5073588;28;20024;-78
2023/04/30 05:39:14;;;;;;;25.50;15.93;;;7.60;99.90;;;;;;5074993;28;20068;-78
2023/04/30 05:41:40;;;;;;;27.50;15.30;;;7.70;99.90;;;;;;5075358;28;20021;-78
2023/04/30 05:44:05;;;;;;;27.77;17.02;;;7.70;99.90;;;;;;5075305;28;20025;-78
2023/04/30 05:46:31;;;;;;;24.05;14.70;;;7.80;99.90;;;;;;5075290;28;20036;-78
2023/04/30 05:48:57;;;;;;;26.35;15.32;;;7.80;99.90;;;;;;5075192;28;20032;-78
2023/04/30 05:51:22;;;;;;;26.27;16.13;;;7.80;99.90;;;;;;5075068;28;20024;-77
2023/04/30 05:53:48;;;;;;;25.15;14.45;;;7.80;99.90;;;;;;5074979;28;20052;-78
2023/04/30 05:56:14;;;;;;;22.40;15.43;;;7.80;99.90;;;;;;5073512;28;20021;-78
2023/04/30 05:58:39;;;;;;;20.40;13.98;;;7.90;99.90;;;;;;5073263;28;20500;-78
2023/04/30 06:01:05;;;;;;;22.55;14.60;;;7.90;99.90;;;;;;5074605;28;20065;-77
2023/04/30 06:03:31;;;;;;;20.95;15.00;;;7.90;99.90;;;;;;5074723;28;20093;-78
2023/04/30 06:05:57;;;;;;;22.02;14.50;;;7.90;99.90;;;;;;5074818;28;20033;-78
2023/04/30 06:08:22;;;;;;;24.55;13.98;;;8.10;99.90;;;;;;5074886;28;20047;-78
2023/04/30 06:10:49;;;;;;;23.52;14.55;;;8.00;99.90;;;;;;5075090;28;20454;-78
2023/04/30 06:13:15;;;;;;;22.70;13.45;;;8.00;99.90;;;;;;5074863;28;20017;-78
2023/04/30 06:15:40;;;;;;;23.05;15.68;;;8.00;99.90;;;;;;5074796;28;20024;-77
2023/04/30 06:18:06;;;;;;;22.00;14.35;;;8.10;99.90;;;;;;5074846;28;20029;-78
2023/04/30 06:20:32;;;;;;;20.58;13.30;;;8.20;99.90;;;;;;5074755;28;20086;-78
2023/04/30 06:22:58;;;;;;;23.50;14.38;;;8.20;99.90;;;;;;5074380;28;20025;-79
2023/04/30 06:25:25;;;;;;;24.05;14.20;;;8.30;99.90;;;;;;5074350;28;20035;-78
2023/04/30 06:27:52;;;;;;;24.35;14.98;;;8.30;99.90;;;;;;5074242;28;20021;-78
2023/04/30 06:30:18;;;;;;;19.00;12.43;;;8.40;99.90;;;;;;5074289;28;20063;-78
2023/04/30 06:32:44;;;;;;;23.08;15.35;;;8.50;99.90;;;;;;5072740;28;20052;-78
2023/04/30 06:35:10;;;;;;;21.50;14.40;;;8.60;99.90;;;;;;5074333;28;20024;-78
2023/04/30 06:37:36;;;;;;;19.02;12.82;;;8.50;99.90;;;;;;5074220;28;20013;-79
2023/04/30 06:40:06;;;;;;;17.15;11.43;;;8.50;99.90;;;;;;5074175;28;20012;-79
2023/04/30 06:42:34;;;;;;;20.55;11.20;;;8.50;99.90;;;;;;5074074;28;20020;-78
2023/04/30 06:45:01;;;;;;;18.95;11.85;;;8.60;99.90;;;;;;5073804;28;20089;-79
2023/04/30 06:47:27;;;;;;;15.57;10.90;;;8.60;99.90;;;;;;5073728;28;20818;-79
2023/04/30 06:49:52;;;;;;;17.05;10.82;;;8.70;99.90;;;;;;5073653;28;20029;-79
2023/04/30 06:52:18;;;;;;;18.05;10.90;;;8.70;99.90;;;;;;5073788;28;20067;-79
2023/04/30 06:54:44;;;;;;;15.50;10.18;;;8.70;99.90;;;;;;5072468;28;20169;-78
2023/04/30 06:57:09;;;;;;;15.20;10.15;;;8.60;99.90;;;;;;5073783;28;20029;-79
2023/04/30 06:59:35;;;;;;;15.15;10.93;;;8.60;99.90;;;;;;5073270;28;20117;-79
2023/04/30 07:02:00;;;;;;;13.93;9.32;;;8.90;99.90;;;;;;5073744;28;20027;-79
2023/04/30 07:04:27;;;;;;;14.45;9.95;;;9.20;99.90;;;;;;5072409;28;20016;-79
2023/04/30 07:06:52;;;;;;;16.52;9.98;;;9.30;99.90;;;;;;5073219;28;20028;-79
2023/04/30 07:09:18;;;;;;;13.15;9.30;;;9.40;99.90;;;;;;5072235;28;20461;-79
2023/04/30 07:11:44;;;;;;;13.98;10.15;;;9.40;99.90;;;;;;5073136;28;20021;-80
2023/04/30 07:14:10;;;;;;;14.25;8.65;;;9.70;99.90;;;;;;5072247;28;20048;-79
2023/04/30 07:16:35;;;;;;;14.23;9.45;;;9.90;99.90;;;;;;5073760;28;20055;-78
2023/04/30 07:19:01;;;;;;;12.15;8.00;;;10.00;98.50;;;;;;5070786;28;20021;-78
2023/04/30 07:21:26;;;;;;;15.32;7.82;;;10.20;95.40;;;;;;5073437;28;20035;-78
2023/04/30 07:23:52;;;;;;;12.13;7.93;;;10.20;86.60;;;;;;5072013;28;20013;-78
2023/04/30 07:26:18;;;;;;;11.57;6.63;;;10.10;82.40;;;;;;5073412;28;20089;-78
2023/04/30 07:28:46;;;;;;;7.85;6.15;;;10.20;80.30;;;;;;5073435;28;20482;-78
2023/04/30 07:31:12;;;;;;;12.80;7.43;;;10.20;79.50;;;;;;5071961;28;20021;-78
2023/04/30 07:33:38;;;;;;;11.63;7.05;;;10.30;79.20;;;;;;5071859;28;20052;-77
2023/04/30 07:36:04;;;;;;;12.43;7.00;;;10.30;82.10;;;;;;5073297;28;20042;-80
2023/04/30 07:38:29;;;;;;;11.45;7.43;;;10.30;80.40;;;;;;5073103;28;20075;-78
2023/04/30 07:40:55;;;;;;;14.82;7.55;;;10.50;81.10;;;;;;5068610;28;20056;-79
2023/04/30 07:43:21;;;;;;;8.95;7.10;;;10.80;81.00;;;;;;5068581;28;20166;-78
2023/04/30 07:45:48;;;;;;;9.07;7.63;;;10.90;80.00;;;;;;5068616;28;20028;-80
2023/04/30 07:48:13;;;;;;;10.57;7.35;;;11.10;77.20;;;;;;5053270;28;20025;-78
2023/04/30 07:50:39;;;;;;;10.90;7.50;;;11.00;78.00;;;;;;5068699;28;20075;-78
2023/04/30 07:53:08;;;;;;;12.05;7.65;;;10.60;77.20;;;;;;5068481;28;20021;-79
2023/04/30 07:55:34;;;;;;;11.43;7.28;;;10.70;77.80;;;;;;5068468;28;20035;-78
2023/04/30 07:58:01;;;;;;;10.82;8.27;;;10.90;78.00;;;;;;5068349;28;20048;-78
2023/04/30 08:00:28;;;;;;;12.77;8.45;;;11.20;80.80;;;;;;5067860;28;20017;-79
2023/04/30 08:02:54;;;;;;;9.05;7.38;;;11.00;76.80;;;;;;5052865;28;20021;-78
2023/04/30 08:05:20;;;;;;;13.70;8.00;;;10.90;77.40;;;;;;5052781;28;20033;-78
2023/04/30 08:07:45;;;;;;;8.77;6.80;;;10.90;77.00;;;;;;5068324;28;20017;-78
2023/04/30 08:10:11;;;;;;;10.32;7.28;;;10.90;75.20;;;;;;5068464;28;20032;-79
2023/04/30 08:12:37;;;;;;;10.40;7.13;;;10.90;76.50;;;;;;5068356;28;20033;-79
2023/04/30 08:15:04;;;;;;;10.82;7.18;;;10.90;77.20;;;;;;5068302;28;20111;-79
2023/04/30 08:17:31;;;;;;;9.88;6.15;;;11.20;73.70;;;;;;5052823;28;20028;-79
2023/04/30 08:19:56;;;;;;;9.25;6.13;;;11.50;73.70;;;;;;5052925;28;20498;-79
2023/04/30 08:22:23;;;;;;;11.25;6.50;;;11.40;71.80;;;;;;5071339;28;20020;-78
2023/04/30 08:24:48;;;;;;;11.73;7.10;;;11.10;71.00;;;;;;5071489;28;20033;-79
2023/04/30 08:27:15;;;;;;;8.43;5.97;;;11.00;70.70;;;;;;5072871;28;20496;-79
2023/04/30 08:29:41;;;;;;;8.40;6.00;;;10.80;69.70;;;;;;5072877;28;20091;-78
2023/04/30 08:32:07;;;;;;;7.63;5.47;;;10.70;70.10;;;;;;5071824;28;20033;-78
2023/04/30 08:34:34;;;;;;;7.38;6.00;;;11.00;69.40;;;;;;5071543;28;20052;-79
2023/04/30 08:37:00;;;;;;;11.50;6.85;;;11.30;69.40;;;;;;5071339;28;20034;-78
2023/04/30 08:39:26;;;;;;;8.90;5.30;;;11.30;66.70;;;;;;5072626;28;20107;-79
2023/04/30 08:41:54;;;;;;;7.60;5.60;;;11.70;68.00;;;;;;5072526;28;20502;-78
2023/04/30 08:44:22;;;;;;;6.55;4.97;;;11.70;67.50;;;;;;5072585;28;20024;-78
2023/04/30 08:46:57;;;;;;;8.15;5.10;;;11.80;67.20;;;;;;5071276;28;20028;-79
2023/04/30 08:49:24;;;;;;;8.23;5.38;;;12.00;67.90;;;;;;5072860;28;20046;-79
2023/04/30 08:51:50;;;;;;;6.38;4.63;;;12.20;67.30;;;;;;5072509;28;20028;-78
2023/04/30 08:54:17;;;;;;;8.13;5.15;;;12.00;65.70;;;;;;5071359;28;20028;-78
2023/04/30 08:56:45;;;;;;;6.78;5.10;;;12.00;66.10;;;;;;5071300;28;20021;-79
2023/04/30 08:59:11;;;;;;;6.40;4.82;;;12.00;63.70;;;;;;5069985;28;20495;-79
2023/04/30 09:01:37;;;;;;;7.85;5.75;;;12.20;64.10;;;;;;5070883;28;20036;-79
2023/04/30 09:04:03;;;;;;;7.45;5.38;;;12.50;63.00;;;;;;5072234;28;20028;-80
2023/04/30 09:06:30;;;;;;;8.27;4.97;;;12.30;63.70;;;;;;5072338;28;20036;-80
2023/04/30 09:08:56;;;;;;;8.27;4.88;;;12.00;63.60;;;;;;5072113;28;20070;-80
2023/04/30 09:11:25;;;;;;;6.07;4.40;;;12.60;63.90;;;;;;5072204;28;20032;-80
2023/04/30 09:14:00;;;;;;;8.77;4.93;;;12.60;62.30;;;;;;5074211;28;20496;-80
2023/04/30 09:16:29;;;;;;;8.95;5.45;;;12.30;59.90;;;;;;5075766;28;20028;-79
2023/04/30 09:18:55;;;;;;;5.75;4.50;;;12.40;60.80;;;;;;5074515;28;20535;-78
2023/04/30 09:21:34;;;;;;;6.75;5.22;;;12.40;60.10;;;;;;5074875;28;20052;-78
2023/04/30 09:24:02;;;;;;;9.13;5.00;;;12.60;61.40;;;;;;5073796;28;20033;-79
2023/04/30 09:26:37;;;;;;;8.35;4.75;;;12.40;59.80;;;;;;5074492;28;20036;-78
2023/04/30 09:29:07;;;;;;;6.03;4.55;;;12.60;61.30;;;;;;5073870;28;20025;-80
2023/04/30 09:31:37;;;;;;;10.60;4.40;;;12.70;60.60;;;;;;5075799;28;20033;-78
2023/04/30 09:34:03;;;;;;;6.80;4.60;;;12.50;60.20;;;;;;5073834;28;20106;-78
2023/04/30 09:36:30;;;;;;;5.30;4.45;;;12.70;59.60;;;;;;5075010;28;20530;-79
2023/04/30 09:39:04;;;;;;;7.70;4.22;;;12.70;59.20;;;;;;5073497;28;20028;-78
2023/04/30 09:41:30;;;;;;;9.27;4.38;;;12.80;58.20;;;;;;5074895;28;20017;-79
2023/04/30 09:43:56;;;;;;;5.40;4.03;;;12.80;58.40;;;;;;5074759;28;20028;-80
2023/04/30 09:46:30;;;;;;;6.05;4.00;;;12.90;60.00;;;;;;5073384;28;20028;-80
2023/04/30 09:48:59;;;;;;;7.72;4.10;;;12.80;58.90;;;;;;5074758;28;20439;-79
2023/04/30 09:51:26;;;;;;;11.40;5.07;;;12.60;58.20;;;;;;5075315;28;20025;-80
2023/04/30 09:53:52;;;;;;;9.23;4.57;;;12.90;57.10;;;;;;5074052;28;20119;-79
2023/04/30 09:56:21;;;;;;;7.75;5.22;;;12.80;57.40;;;;;;5072774;28;20009;-78
2023/04/30 09:58:51;;;;;;;6.30;4.25;;;13.00;58.00;;;;;;5074321;28;20166;-78
2023/04/30 10:01:18;;;;;;;9.20;5.03;;;13.10;60.50;;;;;;5073088;28;20525;-78
2023/04/30 10:03:46;;;;;;;5.45;4.78;;;13.20;57.70;;;;;;5072974;28;20382;-78
2023/04/30 10:06:14;;;;;;;7.75;4.63;;;13.30;57.80;;;;;;5074195;28;20078;-78
2023/04/30 10:08:42;;;;;;;6.70;3.70;;;13.70;59.30;;;;;;5074416;28;20127;-79
2023/04/30 10:11:11;;;;;;;8.10;4.70;;;13.80;57.30;;;;;;5074921;28;20115;-79
2023/04/30 10:13:54;;;;;;;13.70;5.38;;;13.30;56.50;;;;;;5073642;28;20054;-78
2023/04/30 10:16:26;;;;;;;8.82;4.60;;;12.90;57.40;;;;;;5073693;28;20025;-78
2023/04/30 10:18:53;;;;;;;6.43;4.47;;;13.30;57.30;;;;;;5072182;28;20036;-79
2023/04/30 10:21:23;;;;;;;11.27;5.22;;;13.30;57.80;;;;;;5074477;28;20092;-79
2023/04/30 10:23:50;;;;;;;7.72;4.28;;;13.60;57.60;;;;;;5070643;28;20029;-79
2023/04/30 10:26:17;;;;;;;7.00;4.22;;;13.50;54.30;;;;;;5071075;28;20044;-79
2023/04/30 10:28:44;;;;;;;11.02;4.10;;;13.30;54.80;;;;;;5072179;28;20025;-79
2023/04/30 10:31:11;;;;;;;5.32;4.07;;;13.60;56.10;;;;;;5070938;28;20024;-79
2023/04/30 10:33:37;;;;;;;6.72;4.55;;;13.60;56.10;;;;;;5072136;28;20044;-79
2023/04/30 10:36:10;;;;;;;6.03;4.45;;;13.70;55.20;;;;;;5088057;28;20117;-79
2023/04/30 10:38:37;;;;;;;6.78;4.60;;;13.60;54.30;;;;;;5094037;28;20028;-79
2023/04/30 10:41:06;;;;;;;7.00;4.72;;;13.10;55.30;;;;;;5077896;28;20099;-79
2023/04/30 10:43:35;;;;;;;9.82;5.00;;;13.30;55.10;;;;;;5071728;28;20017;-78
2023/04/30 10:46:01;;;;;;;8.10;3.90;;;13.30;54.20;;;;;;5072856;28;20123;-78
2023/04/30 10:48:29;;;;;;;7.25;3.92;;;13.40;54.30;;;;;;5072055;28;20024;-79
2023/04/30 10:50:57;;;;;;;4.53;3.90;;;13.10;53.20;;;;;;5062103;28;20024;-79
2023/04/30 10:53:25;;;;;;;5.38;4.00;;;13.30;54.50;;;;;;5050438;28;20108;-79
2023/04/30 10:55:58;;;;;;;5.25;3.85;;;13.30;55.60;;;;;;5052380;28;20117;-78
2023/04/30 10:58:36;;;;;;;6.30;3.90;;;13.50;54.90;;;;;;5050209;28;20059;-79
2023/04/30 11:01:10;;;;;;;3.58;3.28;;;13.90;56.10;;;;;;5050352;28;20013;-78
2023/04/30 11:03:37;;;;;;;8.32;4.13;;;13.70;51.80;;;;;;5049211;28;20025;-79
2023/04/30 11:06:13;;;;;;;10.75;4.03;;;13.20;52.60;;;;;;5050679;28;20029;-78
2023/04/30 11:08:43;;;;;;;5.28;4.28;;;13.50;54.70;;;;;;5050939;28;20021;-79
2023/04/30 11:11:13;;;;;;;10.05;4.60;;;13.70;54.80;;;;;;5049517;28;20025;-78
2023/04/30 11:14:00;;;;;;;4.60;3.60;;;13.70;53.70;;;;;;5052920;28;20087;-78
2023/04/30 11:16:35;;;;;;;6.25;3.83;;;13.90;54.40;;;;;;5053951;28;20078;-79
2023/04/30 11:19:10;;;;;;;8.20;4.72;;;13.80;55.30;;;;;;5053789;28;20036;-79
2023/04/30 11:22:01;;;;;;;7.90;4.05;;;13.70;55.80;;;;;;5053809;28;20421;-78
2023/04/30 11:24:58;;;;;;;5.35;4.35;;;14.00;55.80;;;;;;5053786;28;20516;-78
2023/04/30 11:27:29;;;;;;;13.20;3.40;;;14.20;52.80;;;;;;5052435;28;20021;-79
2023/04/30 11:29:56;;;;;;;5.05;3.10;;;14.30;52.70;;;;;;5053683;28;20025;-78
2023/04/30 11:32:24;;;;;;;9.40;3.53;;;14.00;50.30;;;;;;5053572;28;20029;-78
2023/04/30 11:34:50;;;;;;;6.88;3.83;;;14.00;49.70;;;;;;5051548;28;20045;-79
2023/04/30 11:37:23;;;;;;;9.85;4.07;;;14.10;51.50;;;;;;5053329;28;20078;-79
2023/04/30 11:39:49;;;;;;;6.40;3.83;;;14.30;51.40;;;;;;5052074;28;20025;-79
2023/04/30 11:42:19;;;;;;;6.15;3.88;;;14.60;52.70;;;;;;5053490;28;20063;-78
2023/04/30 11:44:45;;;;;;;6.88;4.40;;;14.50;52.30;;;;;;5051965;28;20183;-78
2023/04/30 11:47:13;;;;;;;5.80;4.30;;;14.70;51.70;;;;;;5052077;28;20115;-78
2023/04/30 11:49:39;;;;;;;4.25;3.35;;;15.00;53.30;;;;;;5052129;28;20548;-79
2023/04/30 11:52:04;;;;;;;6.07;3.22;;;15.00;52.10;;;;;;5053300;28;20025;-78
2023/04/30 11:54:31;;;;;;;6.68;3.65;;;14.80;50.90;;;;;;5053376;28;20017;-78
2023/04/30 11:57:02;;;;;;;3.90;3.10;;;14.50;50.20;;;;;;5052031;28;20531;-78
2023/04/30 11:59:29;;;;;;;4.55;3.20;;;14.50;50.70;;;;;;5053308;28;20378;-78
2023/04/30 12:01:54;;;;;;;4.43;3.20;;;14.60;50.40;;;;;;5051875;28;20025;-78
2023/04/30 12:04:21;;;;;;;4.88;3.25;;;14.60;51.90;;;;;;5051959;28;20112;-79
2023/04/30 12:06:47;;;;;;;6.10;3.97;;;14.60;49.70;;;;;;5053177;28;20037;-78
2023/04/30 12:09:12;;;;;;;5.90;3.90;;;14.40;48.80;;;;;;5053051;28;20091;-79
2023/04/30 12:11:38;;;;;;;5.30;4.07;;;14.60;49.70;;;;;;5051900;28;20025;-78
2023/04/30 12:14:13;;;;;;;4.43;3.47;;;14.70;50.20;;;;;;5051830;28;20035;-79
2023/04/30 12:16:44;;;;;;;5.85;3.38;;;14.80;48.70;;;;;;5051857;28;20036;-79
2023/04/30 12:19:10;;;;;;;7.38;3.63;;;14.60;48.70;;;;;;5051757;28;20100;-79
2023/04/30 12:21:37;;;;;;;6.00;2.88;;;14.50;47.80;;;;;;5053085;28;20017;-78
2023/04/30 12:24:03;;;;;;;4.68;2.92;;;14.30;47.80;;;;;;5051742;28;20013;-79
2023/04/30 12:26:38;;;;;;;8.05;3.63;;;14.30;48.30;;;;;;5051715;28;20032;-78
2023/04/30 12:29:07;;;;;;;7.90;3.10;;;14.40;48.80;;;;;;5051705;28;20071;-79
2023/04/30 12:31:32;;;;;;;9.20;3.72;;;14.70;50.20;;;;;;5052910;28;20056;-80
2023/04/30 12:34:03;;;;;;;3.90;3.15;;;14.80;50.20;;;;;;5052896;28;20088;-78
2023/04/30 12:36:35;;;;;;;5.68;2.78;;;14.70;49.40;;;;;;5051726;28;20029;-78
2023/04/30 12:39:16;;;;;;;3.05;2.72;;;14.60;48.50;;;;;;5051622;28;20066;-78
2023/04/30 12:41:44;;;;;;;4.88;3.15;;;14.20;48.90;;;;;;5052822;28;20029;-79
2023/04/30 12:44:16;;;;;;;3.83;3.00;;;14.30;47.90;;;;;;5052959;28;20032;-78